Time;durP1;ratioP1;P1;durP2;ratioP2;P2;SDS_P1;SDS_P2;PMS_P1;PMS_P2;Temp;Humidity;BMP_temperature;BMP_pressure;BME280_temperature;BME280_humidity;BME280_pressure;Samples;Min_cycle;Max_cycle;Signal;HPM_P1;HPM_P2
2023/02/22 00:00:28;;;;;;;153.32;41.28;;;;;;;5.75;100.00;101502.75;5070057;28;20476;-45
2023/02/22 00:02:58;;;;;;;162.70;41.92;;;;;;;5.73;100.00;101505.53;5069943;28;20031;-46
2023/02/22 00:05:26;;;;;;;155.68;39.92;;;;;;;5.71;100.00;101499.47;5069910;28;20025;-44
2023/02/22 00:07:51;;;;;;;155.20;39.67;;;;;;;5.72;100.00;101496.69;5068549;28;20044;-45
2023/02/22 00:10:19;;;;;;;155.40;39.75;;;;;;;5.77;100.00;101498.97;5050903;28;20060;-45
2023/02/22 00:12:46;;;;;;;;;;;;;;;5.80;100.00;101500.53;5069629;28;20033;-46
2023/02/22 00:15:13;;;;;;;148.45;39.40;;;;;;;5.86;100.00;101489.28;5068546;28;19926;-45
2023/02/22 00:17:38;;;;;;;152.45;39.30;;;;;;;5.84;100.00;101491.25;5069294;28;20025;-46
2023/02/22 00:20:06;;;;;;;143.45;36.92;;;;;;;5.84;100.00;101483.22;5069313;28;20012;-48
2023/02/22 00:22:32;;;;;;;;;;;;;;;5.87;100.00;101482.94;5069618;28;20103;-45
2023/02/22 00:24:57;;;;;;;157.95;36.92;;;;;;;5.88;100.00;101485.50;5051141;28;19952;-46
2023/02/22 00:27:23;;;;;;;160.82;38.03;;;;;;;6.01;100.00;101484.47;5069831;28;20040;-46
2023/02/22 00:29:48;;;;;;;153.65;37.78;;;;;;;5.91;100.00;101487.06;5069401;28;20086;-44
2023/02/22 00:32:14;;;;;;;146.43;36.38;;;;;;;5.74;100.00;101483.22;5071714;28;20048;-45
2023/02/22 00:34:39;;;;;;;143.88;35.92;;;;;;;5.70;100.00;101479.94;5073396;28;20031;-44
2023/02/22 00:37:05;;;;;;;155.93;37.53;;;;;;;5.76;100.00;101485.72;5069372;28;20059;-44
2023/02/22 00:39:30;;;;;;;158.55;39.08;;;;;;;5.69;100.00;101480.09;5066074;28;20032;-45
2023/02/22 00:41:56;;;;;;;158.88;39.75;;;;;;;5.69;100.00;101480.09;5073683;28;20127;-44
2023/02/22 00:44:21;;;;;;;142.98;38.17;;;;;;;5.67;100.00;101482.06;5073235;28;20104;-45
2023/02/22 00:46:48;;;;;;;157.88;40.30;;;;;;;5.60;100.00;101480.88;5073385;28;20029;-45
2023/02/22 00:49:14;;;;;;;141.13;35.50;;;;;;;5.46;100.00;101490.94;5072720;28;20114;-44
2023/02/22 00:51:40;;;;;;;138.70;34.90;;;;;;;5.45;100.00;101483.94;5073089;28;20515;-43
2023/02/22 00:54:05;;;;;;;132.07;33.83;;;;;;;5.37;100.00;101481.06;5064845;28;20025;-45
2023/02/22 00:56:33;;;;;;;137.68;35.22;;;;;;;5.41;100.00;101487.00;5053192;28;20033;-45
2023/02/22 00:58:59;;;;;;;134.68;34.67;;;;;;;5.31;100.00;101484.25;5069113;28;20392;-44
2023/02/22 01:01:25;;;;;;;137.48;35.40;;;;;;;5.31;100.00;101481.59;5072604;28;20461;-46
2023/02/22 01:03:51;;;;;;;143.20;36.70;;;;;;;5.38;100.00;101488.09;5072843;28;20534;-44
2023/02/22 01:06:16;;;;;;;134.40;36.00;;;;;;;5.36;100.00;101479.38;5071831;28;20032;-46
2023/02/22 01:08:46;;;;;;;132.40;35.67;;;;;;;5.35;100.00;101483.03;5072801;28;20113;-44
2023/02/22 01:11:14;;;;;;;143.52;37.42;;;;;;;5.33;100.00;101479.63;5071375;28;20044;-46
2023/02/22 01:13:39;;;;;;;127.57;33.78;;;;;;;5.38;100.00;101488.09;5070935;28;20032;-46
2023/02/22 01:16:07;;;;;;;131.27;37.78;;;;;;;5.29;100.00;101488.88;5070123;28;20653;-45
2023/02/22 01:18:36;;;;;;;135.75;37.00;;;;;;;5.18;100.00;101470.28;5072556;28;20417;-44
2023/02/22 01:21:02;;;;;;;145.13;40.03;;;;;;;5.10;100.00;101467.41;5072404;28;20020;-45
2023/02/22 01:23:28;;;;;;;134.35;37.17;;;;;;;5.10;100.00;101467.41;5070347;28;20028;-45
2023/02/22 01:25:53;;;;;;;130.52;38.25;;;;;;;5.07;100.00;101461.38;5071683;28;20043;-44
2023/02/22 01:28:19;;;;;;;133.48;38.53;;;;;;;5.01;100.00;101461.06;5071987;28;20054;-45
2023/02/22 01:30:44;;;;;;;136.00;38.72;;;;;;;5.03;100.00;101462.63;5071305;28;20502;-45
2023/02/22 01:33:11;;;;;;;139.93;39.40;;;;;;;4.99;100.00;101452.34;5069732;28;20041;-48
2023/02/22 01:35:40;;;;;;;142.03;40.03;;;;;;;5.05;100.00;101458.00;5069505;28;20035;-46
2023/02/22 01:38:07;;;;;;;135.18;38.33;;;;;;;5.01;100.00;101453.06;5070801;28;20155;-44
2023/02/22 01:40:37;;;;;;;138.73;39.97;;;;;;;5.00;100.00;101449.53;5071231;28;20027;-44
2023/02/22 01:43:25;;;;;;;145.82;41.83;;;;;;;4.95;100.00;101453.56;5072331;28;20024;-45
2023/02/22 01:46:02;;;;;;;142.57;40.55;;;;;;;4.90;100.00;101451.31;5073744;28;20125;-44
2023/02/22 01:48:54;;;;;;;128.48;39.30;;;;;;;4.94;100.00;101443.88;5072627;28;20438;-44
2023/02/22 01:51:23;;;;;;;130.35;38.80;;;;;;;4.84;100.00;101435.78;5063831;28;20369;-44
2023/02/22 01:53:57;;;;;;;125.65;39.22;;;;;;;4.79;100.00;101432.66;5080689;28;20020;-44
2023/02/22 01:56:24;;;;;;;140.75;40.78;;;;;;;4.73;100.00;101435.88;5070679;28;20033;-43
2023/02/22 01:58:58;;;;;;;142.82;40.72;;;;;;;4.68;100.00;101427.41;5070230;28;20031;-44
2023/02/22 02:01:24;;;;;;;151.07;42.15;;;;;;;4.77;100.00;101431.97;5067279;28;20028;-43
2023/02/22 02:03:50;;;;;;;145.27;41.42;;;;;;;4.68;100.00;101427.41;5052129;28;20124;-44
2023/02/22 02:06:17;;;;;;;151.50;42.75;;;;;;;4.65;100.00;101430.34;5071315;28;20508;-45
2023/02/22 02:08:50;;;;;;;158.73;43.55;;;;;;;4.64;100.00;101418.84;5071156;28;20024;-44
2023/02/22 02:11:18;;;;;;;139.50;39.53;;;;;;;4.59;100.00;101415.72;5051175;28;20032;-44
2023/02/22 02:13:43;;;;;;;;;;;;;;;4.67;100.00;101415.91;5060978;28;20031;-43
2023/02/22 02:16:09;;;;;;;147.77;41.40;;;;;;;4.62;100.00;101420.78;5071107;28;19912;-47
2023/02/22 02:18:34;;;;;;;140.40;41.05;;;;;;;4.54;100.00;101424.09;5070302;28;20068;-46
2023/02/22 02:21:33;;;;;;;149.27;41.90;;;;;;;4.56;100.00;101414.16;5052833;28;20030;-44
2023/02/22 02:24:22;;;;;;;165.80;42.85;;;;;;;4.50;100.00;101411.13;5068140;28;20542;-44
2023/02/22 02:27:17;;;;;;;167.73;44.55;;;;;;;4.56;100.00;101406.16;5069548;28;20029;-45
2023/02/22 02:30:01;;;;;;;169.27;46.47;;;;;;;4.51;100.00;101397.69;5068750;28;20123;-46
2023/02/22 02:32:52;;;;;;;169.05;45.63;;;;;;;4.43;100.00;101397.50;5070012;28;20075;-47
2023/02/22 02:35:20;;;;;;;175.30;48.00;;;;;;;4.45;100.00;101395.56;5067845;28;20054;-44
2023/02/22 02:37:55;;;;;;;187.88;48.53;;;;;;;4.40;100.00;101392.41;5069730;28;20033;-45
2023/02/22 02:40:50;;;;;;;188.25;47.45;;;;;;;4.36;100.00;101402.47;5071077;28;20139;-45
2023/02/22 02:43:36;;;;;;;176.02;45.30;;;;;;;4.41;100.00;101386.09;5070381;28;20395;-44
2023/02/22 02:46:04;;;;;;;177.90;44.53;;;;;;;4.40;100.00;101379.09;5069326;28;20110;-46
2023/02/22 02:48:31;;;;;;;168.15;44.92;;;;;;;4.38;100.00;101383.69;5071676;28;20056;-43
2023/02/22 02:50:59;;;;;;;177.63;44.53;;;;;;;4.32;100.00;101378.91;5051265;28;20046;-44
2023/02/22 02:53:29;;;;;;;180.43;46.22;;;;;;;4.36;100.00;101380.31;5052149;28;20029;-45
2023/02/22 02:55:58;;;;;;;167.48;45.78;;;;;;;4.38;100.00;101376.56;5050999;28;20356;-45
2023/02/22 02:58:24;;;;;;;171.27;44.75;;;;;;;4.42;100.00;101365.63;5070413;28;20392;-45
2023/02/22 03:00:54;;;;;;;164.40;44.03;;;;;;;4.40;100.00;101360.44;5068967;28;20047;-44
2023/02/22 03:03:36;;;;;;;190.70;48.13;;;;;;;4.43;100.00;101362.84;5055572;28;20119;-46
2023/02/22 03:06:24;;;;;;;194.88;48.63;;;;;;;4.42;100.00;101361.13;5067337;28;20451;-44
2023/02/22 03:09:01;;;;;;;182.68;45.58;;;;;;;4.41;100.00;101359.47;5063228;28;20036;-45
2023/02/22 03:12:04;;;;;;;181.25;44.63;;;;;;;4.40;100.00;101352.44;5050050;28;20045;-48
2023/02/22 03:14:41;;;;;;;181.10;46.25;;;;;;;4.31;100.00;101342.53;5043056;28;20033;-48
2023/02/22 03:17:29;;;;;;;177.25;47.38;;;;;;;4.33;100.00;101335.28;5042501;28;20029;-46
2023/02/22 03:20:00;;;;;;;183.57;45.35;;;;;;;4.32;100.00;101333.59;5052132;28;20040;-45
2023/02/22 03:22:31;;;;;;;181.23;47.63;;;;;;;4.34;100.00;101336.94;5051077;28;20111;-45
2023/02/22 03:25:14;;;;;;;168.85;45.53;;;;;;;4.30;100.00;101325.72;5069849;28;20249;-45
2023/02/22 03:27:45;;;;;;;186.93;47.30;;;;;;;4.26;100.00;101312.78;5051403;28;20029;-46
2023/02/22 03:30:15;;;;;;;199.25;49.80;;;;;;;4.33;100.00;101317.47;5067855;28;20051;-45
2023/02/22 03:32:47;;;;;;;195.32;46.72;;;;;;;4.23;100.00;101315.72;5069158;28;20047;-43
2023/02/22 03:35:22;;;;;;;199.35;49.40;;;;;;;4.14;100.00;101309.34;5069465;28;20321;-45
2023/02/22 03:37:49;;;;;;;192.15;47.35;;;;;;;4.15;100.00;101317.19;5049957;28;20107;-44
2023/02/22 03:40:24;;;;;;;187.32;46.65;;;;;;;4.07;100.00;101314.31;5050686;28;20020;-43
2023/02/22 03:42:52;;;;;;;201.02;45.85;;;;;;;3.99;100.00;101314.13;5055491;28;20032;-45
2023/02/22 03:45:20;;;;;;;208.65;47.58;;;;;;;3.99;100.00;101316.78;5046229;28;20029;-45
2023/02/22 03:47:51;;;;;;;197.27;47.53;;;;;;;3.92;100.00;101316.47;5068800;28;20411;-45
2023/02/22 03:50:28;;;;;;;208.38;48.58;;;;;;;3.91;100.00;101312.09;5051131;28;20033;-48
2023/02/22 03:52:55;;;;;;;199.40;48.23;;;;;;;3.93;100.00;101310.16;5073350;28;20454;-47
2023/02/22 03:55:22;;;;;;;208.00;48.67;;;;;;;3.92;100.00;101303.16;5050515;28;20314;-47
2023/02/22 03:57:50;;;;;;;209.45;49.28;;;;;;;3.92;100.00;101302.28;5051262;28;20028;-47
2023/02/22 04:00:21;;;;;;;206.75;49.35;;;;;;;3.97;100.00;101298.25;5050405;28;20036;-47
2023/02/22 04:02:47;;;;;;;223.80;51.53;;;;;;;4.02;100.00;101289.88;5065489;28;20043;-44
2023/02/22 04:05:13;;;;;;;205.85;48.38;;;;;;;4.07;100.00;101285.03;5068492;28;20037;-47
2023/02/22 04:07:38;;;;;;;207.82;48.08;;;;;;;4.06;100.00;101288.66;5072414;28;20025;-45
2023/02/22 04:10:07;;;;;;;203.73;47.15;;;;;;;4.13;100.00;101284.53;5073577;28;20598;-45
2023/02/22 04:12:33;;;;;;;196.65;45.67;;;;;;;4.10;100.00;101284.75;5073240;28;20028;-45
2023/02/22 04:14:58;;;;;;;207.40;46.60;;;;;;;4.13;100.00;101289.84;5055769;28;20020;-45
2023/02/22 04:17:24;;;;;;;208.32;48.58;;;;;;;4.13;100.00;101275.66;5071537;28;20034;-47
2023/02/22 04:19:50;;;;;;;203.25;47.65;;;;;;;4.12;100.00;101277.50;5071943;28;20475;-45
2023/02/22 04:22:16;;;;;;;209.48;48.88;;;;;;;4.00;100.00;101275.00;5072189;28;20430;-48
2023/02/22 04:24:41;;;;;;;223.93;42.88;;;;;;;3.94;100.00;101266.56;5072086;28;20028;-48
2023/02/22 04:27:06;;;;;;;192.65;45.45;;;;;;;3.96;100.00;101263.78;5072083;28;20032;-45
2023/02/22 04:29:32;;;;;;;196.50;46.45;;;;;;;3.94;100.00;101271.03;5072556;28;20136;-48
2023/02/22 04:31:57;;;;;;;188.73;46.17;;;;;;;3.93;100.00;101267.53;5072305;28;20086;-47
2023/02/22 04:34:22;;;;;;;206.60;46.75;;;;;;;3.95;100.00;101270.09;5072803;28;20033;-47
2023/02/22 04:36:48;;;;;;;183.02;44.53;;;;;;;3.83;100.00;101268.44;5072402;28;20475;-45
2023/02/22 04:39:13;;;;;;;183.68;42.78;;;;;;;3.74;100.00;101265.56;5072532;28;20091;-45
2023/02/22 04:41:39;;;;;;;192.48;42.40;;;;;;;3.71;100.00;101265.84;5072579;28;20522;-48
2023/02/22 04:44:04;;;;;;;180.43;43.70;;;;;;;3.75;100.00;101266.41;5071631;28;20123;-48
2023/02/22 04:46:30;;;;;;;183.73;44.30;;;;;;;3.88;100.00;101274.22;5072175;28;20031;-47
2023/02/22 04:48:56;;;;;;;172.68;41.60;;;;;;;3.88;100.00;101267.09;5070896;28;20055;-47
2023/02/22 04:51:22;;;;;;;168.13;42.28;;;;;;;3.77;100.00;101269.81;5071172;28;20082;-45
2023/02/22 04:53:47;;;;;;;182.55;43.42;;;;;;;3.86;100.00;101261.03;5053600;28;20032;-45
2023/02/22 04:56:13;;;;;;;176.90;41.13;;;;;;;3.83;100.00;101263.13;5054558;28;20024;-44
2023/02/22 04:58:38;;;;;;;169.98;41.42;;;;;;;3.90;100.00;101253.66;5071976;28;20024;-44
2023/02/22 05:01:03;;;;;;;150.32;40.30;;;;;;;3.85;100.00;101261.19;5053346;28;20094;-45
2023/02/22 05:03:29;;;;;;;172.70;41.08;;;;;;;3.83;100.00;101268.44;5072903;28;20036;-44
2023/02/22 05:05:54;;;;;;;166.00;40.75;;;;;;;3.77;100.00;101263.63;5071496;28;20099;-44
2023/02/22 05:08:20;;;;;;;175.50;41.58;;;;;;;3.73;100.00;101263.88;5054319;28;20028;-45
2023/02/22 05:10:45;;;;;;;175.00;42.03;;;;;;;3.79;100.00;101261.66;5072479;28;20028;-48
2023/02/22 05:13:10;;;;;;;173.45;40.78;;;;;;;3.80;100.00;101258.06;5054066;28;20503;-44
2023/02/22 05:15:36;;;;;;;181.13;42.90;;;;;;;3.78;100.00;101260.00;5072088;28;20028;-45
2023/02/22 05:18:01;;;;;;;164.05;42.88;;;;;;;3.82;100.00;101250.75;5069478;28;20538;-44
2023/02/22 05:20:32;;;;;;;176.38;43.20;;;;;;;3.83;100.00;101247.97;5071132;28;20475;-47
2023/02/22 05:22:59;;;;;;;173.00;43.95;;;;;;;3.88;100.00;101244.94;5071423;28;20404;-45
2023/02/22 05:25:24;;;;;;;196.27;43.40;;;;;;;3.87;100.00;101237.91;5071667;28;20124;-44
2023/02/22 05:27:51;;;;;;;198.38;44.03;;;;;;;3.79;100.00;101230.59;5053189;28;20024;-46
2023/02/22 05:30:17;;;;;;;213.68;44.40;;;;;;;3.82;100.00;101234.78;5053135;28;20111;-44
2023/02/22 05:32:43;;;;;;;181.57;42.42;;;;;;;3.82;100.00;101240.09;5071810;28;20139;-45
2023/02/22 05:35:08;;;;;;;239.57;42.50;;;;;;;3.76;100.00;101232.66;5070952;28;20234;-44
2023/02/22 05:37:34;;;;;;;190.60;42.28;;;;;;;3.75;100.00;101234.47;5070838;28;20062;-44
2023/02/22 05:39:59;;;;;;;299.55;44.40;;;;;;;3.74;100.00;101238.94;5073008;28;20020;-43
2023/02/22 05:42:25;;;;;;;200.18;44.60;;;;;;;3.78;100.00;101230.72;5064544;28;20078;-46
2023/02/22 05:44:50;;;;;;;195.02;44.60;;;;;;;3.84;100.00;101227.53;5070637;28;20455;-46
2023/02/22 05:47:16;;;;;;;206.27;43.17;;;;;;;3.85;100.00;101229.22;5052257;28;20115;-45
2023/02/22 05:49:41;;;;;;;218.23;45.28;;;;;;;3.91;100.00;101231.38;5070071;28;20502;-44
2023/02/22 05:52:06;;;;;;;213.70;42.35;;;;;;;3.85;100.00;101229.22;5068671;28;20036;-45
2023/02/22 05:54:32;;;;;;;182.52;40.88;;;;;;;3.99;100.00;101223.56;5070393;28;20034;-44
2023/02/22 05:56:57;;;;;;;190.20;40.85;;;;;;;4.03;100.00;101222.34;5070366;28;20552;-45
2023/02/22 05:59:22;;;;;;;244.27;41.38;;;;;;;3.97;100.00;101210.38;5070481;28;20500;-43
2023/02/22 06:01:48;;;;;;;294.23;43.80;;;;;;;3.92;100.00;101204.63;5054053;28;20024;-45
2023/02/22 06:04:13;;;;;;;210.50;42.90;;;;;;;3.92;100.00;101201.09;5071098;28;20092;-45
2023/02/22 06:06:38;;;;;;;197.88;43.03;;;;;;;4.01;100.00;101192.34;5071513;28;20048;-46
2023/02/22 06:09:04;;;;;;;271.10;40.90;;;;;;;4.01;100.00;101187.00;5053813;28;20494;-45
2023/02/22 06:11:29;;;;;;;202.45;40.25;;;;;;;4.00;100.00;101179.97;5051472;28;20025;-44
2023/02/22 06:13:54;;;;;;;183.50;38.45;;;;;;;4.12;100.00;101186.09;5052714;28;20067;-43
2023/02/22 06:16:20;;;;;;;231.23;38.97;;;;;;;4.11;100.00;101163.94;5071537;28;20067;-43
2023/02/22 06:18:46;;;;;;;233.82;41.97;;;;;;;4.04;100.00;101175.25;5070023;28;20032;-46
2023/02/22 06:21:12;;;;;;;194.18;38.38;;;;;;;4.07;100.00;101181.16;5071255;28;20456;-45
2023/02/22 06:23:37;;;;;;;256.08;38.92;;;;;;;3.98;100.00;101192.59;5051322;28;20025;-46
2023/02/22 06:26:03;;;;;;;155.85;36.50;;;;;;;4.09;100.00;101195.19;5071025;28;20037;-47
2023/02/22 06:28:28;;;;;;;158.40;35.03;;;;;;;4.22;100.00;101188.81;5069054;28;20403;-46
2023/02/22 06:30:53;;;;;;;172.50;37.05;;;;;;;4.22;100.00;101199.47;5071034;28;20097;-45
2023/02/22 06:33:19;;;;;;;152.60;36.05;;;;;;;4.18;100.00;101199.72;5070464;28;20078;-45
2023/02/22 06:35:45;;;;;;;162.95;36.55;;;;;;;4.16;100.00;101207.00;5071032;28;20120;-45
2023/02/22 06:38:11;;;;;;;166.98;35.55;;;;;;;4.12;100.00;101204.72;5053438;28;20036;-45
2023/02/22 06:40:36;;;;;;;189.18;37.60;;;;;;;4.16;100.00;101204.34;5069255;28;20376;-43
2023/02/22 06:43:01;;;;;;;181.85;38.92;;;;;;;4.11;100.00;101209.22;5070558;28;20333;-45
2023/02/22 06:45:27;;;;;;;159.45;36.78;;;;;;;4.12;100.00;101200.25;5070127;28;20059;-44
2023/02/22 06:47:52;;;;;;;206.48;34.78;;;;;;;4.11;100.00;101193.25;5053315;28;20036;-44
2023/02/22 06:50:24;;;;;;;158.65;34.08;;;;;;;4.11;100.00;101187.06;5069423;28;20025;-45
2023/02/22 06:52:50;;;;;;;145.25;34.10;;;;;;;4.08;100.00;101200.63;5070731;28;20029;-47
2023/02/22 06:55:20;;;;;;;145.15;33.03;;;;;;;4.02;100.00;101201.16;5070753;28;20039;-45
2023/02/22 06:57:45;;;;;;;145.35;33.65;;;;;;;4.06;100.00;101211.44;5050275;28;20111;-46
2023/02/22 07:00:11;;;;;;;144.50;33.40;;;;;;;4.18;100.00;101210.38;5070182;28;20406;-44
2023/02/22 07:02:37;;;;;;;139.13;33.42;;;;;;;4.17;100.00;101203.34;5068299;28;20037;-48
2023/02/22 07:05:02;;;;;;;144.07;33.92;;;;;;;4.23;100.00;101206.47;5033429;28;20109;-45
2023/02/22 07:07:28;;;;;;;144.05;34.20;;;;;;;4.17;100.00;101207.84;5069212;28;20387;-47
2023/02/22 07:09:54;;;;;;;150.35;34.67;;;;;;;4.16;100.00;101207.00;5069545;28;20124;-47
2023/02/22 07:12:19;;;;;;;149.48;34.38;;;;;;;4.24;100.00;101208.16;5068313;28;20039;-47
2023/02/22 07:14:45;;;;;;;164.57;35.13;;;;;;;4.16;100.00;101207.00;5070199;28;20102;-45
2023/02/22 07:17:10;;;;;;;133.88;33.85;;;;;;;4.14;100.00;101213.44;5069821;28;20044;-44
2023/02/22 07:19:35;;;;;;;134.98;32.05;;;;;;;4.16;100.00;101209.66;5070985;28;20483;-43
2023/02/22 07:22:01;;;;;;;140.13;33.25;;;;;;;4.10;100.00;101212.84;5072212;28;20085;-46
2023/02/22 07:24:29;;;;;;;138.55;32.10;;;;;;;4.05;100.00;101217.72;5072181;28;20033;-44
2023/02/22 07:26:54;;;;;;;136.15;36.03;;;;;;;4.12;100.00;101221.56;5051193;28;20535;-45
2023/02/22 07:29:21;;;;;;;148.45;36.42;;;;;;;4.22;100.00;101215.44;5068213;28;20095;-45
2023/02/22 07:31:46;;;;;;;140.10;34.53;;;;;;;4.39;100.00;101221.00;5065377;28;20055;-45
2023/02/22 07:34:13;;;;;;;134.02;34.03;;;;;;;4.47;100.00;101215.00;5069217;28;20025;-44
2023/02/22 07:36:38;;;;;;;132.60;32.35;;;;;;;4.45;100.00;101216.97;5069009;28;20039;-45
2023/02/22 07:39:07;;;;;;;120.97;33.03;;;;;;;4.45;100.00;101219.66;5046853;28;20041;-45
2023/02/22 07:41:33;;;;;;;132.05;33.22;;;;;;;4.39;100.00;101218.31;5057841;28;20029;-47
2023/02/22 07:43:58;;;;;;;99.30;29.95;;;;;;;4.32;100.00;101233.19;5062386;28;20028;-43
2023/02/22 07:46:23;;;;;;;123.88;33.22;;;;;;;4.36;100.00;101217.75;5063829;28;20063;-45
2023/02/22 07:48:49;;;;;;;105.97;30.42;;;;;;;4.31;100.00;101217.31;5066443;28;20064;-43
2023/02/22 07:51:16;;;;;;;111.55;30.52;;;;;;;4.36;100.00;101212.44;5063945;28;20472;-45
2023/02/22 07:53:41;;;;;;;124.28;33.50;;;;;;;4.35;100.00;101197.44;5063580;28;20375;-46
2023/02/22 07:56:07;;;;;;;112.30;31.88;;;;;;;4.48;100.00;101195.38;5062223;28;20025;-47
2023/02/22 07:58:34;;;;;;;122.03;35.22;;;;;;;4.43;100.00;101194.94;5064659;28;20078;-44
2023/02/22 08:01:00;;;;;;;111.50;30.75;;;;;;;4.35;100.00;101200.09;5064665;28;20036;-47
2023/02/22 08:03:26;;;;;;;120.80;34.42;;;;;;;4.37;100.00;101209.66;5061936;28;20410;-44
2023/02/22 08:05:54;;;;;;;112.43;31.73;;;;;;;4.42;100.00;101205.72;5063598;28;20069;-46
2023/02/22 08:08:19;;;;;;;114.40;32.85;;;;;;;4.43;100.00;101202.94;5064528;28;20024;-43
2023/02/22 08:10:45;;;;;;;111.32;31.17;;;;;;;4.49;100.00;101197.06;5063454;28;20032;-43
2023/02/22 08:13:11;;;;;;;113.97;30.65;;;;;;;4.59;100.00;101191.78;5063071;28;20036;-44
2023/02/22 08:15:38;;;;;;;116.22;32.28;;;;;;;4.51;100.00;101189.78;5058128;28;20027;-43
2023/02/22 08:18:09;;;;;;;101.30;32.20;;;;;;;4.62;100.00;101192.34;5044093;28;20044;-44
2023/02/22 08:20:36;;;;;;;95.55;31.40;;;;;;;4.60;100.00;101183.63;5060641;28;20204;-44
2023/02/22 08:23:02;;;;;;;98.00;29.73;;;;;;;4.71;100.00;101184.50;5044841;28;20041;-43
2023/02/22 08:25:28;;;;;;;99.80;30.20;;;;;;;4.76;100.00;101176.94;5065095;28;20108;-43
2023/02/22 08:28:02;;;;;;;96.55;28.38;;;;;;;4.79;100.00;101166.88;5063833;28;20036;-46
2023/02/22 08:30:29;;;;;;;92.85;29.33;;;;;;;4.67;100.00;101167.97;5063414;28;20047;-45
2023/02/22 08:32:54;;;;;;;99.95;30.00;;;;;;;4.67;100.00;101156.44;5057443;28;20140;-44
2023/02/22 08:35:20;;;;;;;96.65;29.75;;;;;;;4.89;100.00;101160.72;5063155;28;20103;-44
2023/02/22 08:37:55;;;;;;;87.20;28.38;;;;;;;4.93;100.00;101160.31;5063845;28;20036;-45
2023/02/22 08:40:22;;;;;;;94.10;28.33;;;;;;;5.02;100.00;101140.78;5063999;28;20037;-44
2023/02/22 08:42:48;;;;;;;82.75;28.23;;;;;;;5.02;100.00;101132.78;5062850;28;20480;-44
2023/02/22 08:45:13;;;;;;;92.20;27.50;;;;;;;5.09;100.00;101129.59;5062918;28;20071;-43
2023/02/22 08:47:39;;;;;;;90.07;29.17;;;;;;;5.24;100.00;101130.84;5064223;28;20100;-42
2023/02/22 08:50:06;;;;;;;83.93;27.95;;;;;;;5.23;100.00;101132.66;5045261;28;20040;-43
2023/02/22 08:52:31;;;;;;;89.03;27.90;;;;;;;5.23;100.00;101137.16;5062649;28;20044;-43
2023/02/22 08:54:56;;;;;;;78.78;27.38;;;;;;;5.28;100.00;101132.25;5065150;28;20494;-43
2023/02/22 08:57:22;;;;;;;87.55;27.90;;;;;;;5.39;100.00;101115.25;5065742;28;20082;-43
2023/02/22 08:59:47;;;;;;;77.93;27.05;;;;;;;5.36;100.00;101124.38;5063719;28;20035;-43
2023/02/22 09:02:14;;;;;;;76.70;28.67;;;;;;;5.38;100.00;101119.75;5065537;28;20033;-45
2023/02/22 09:04:40;;;;;;;75.47;26.58;;;;;;;5.54;100.00;101121.00;5067217;28;20032;-44
2023/02/22 09:07:05;;;;;;;68.43;25.98;;;;;;;5.65;100.00;101115.50;5067806;28;20043;-44
2023/02/22 09:09:30;;;;;;;74.05;25.83;;;;;;;5.70;100.00;101114.09;5050146;28;20510;-46
2023/02/22 09:11:56;;;;;;;78.80;26.00;;;;;;;5.88;100.00;101106.16;5064461;28;20048;-44
2023/02/22 09:14:21;;;;;;;65.75;25.20;;;;;;;6.02;100.00;101101.38;5066840;28;20048;-45
2023/02/22 09:16:47;;;;;;;61.70;24.45;;;;;;;5.91;100.00;101081.00;5065730;28;20028;-43
2023/02/22 09:19:12;;;;;;;74.38;25.17;;;;;;;6.04;100.00;101094.91;5049218;28;20031;-43
2023/02/22 09:21:39;;;;;;;59.60;22.73;;;;;;;5.97;100.00;101107.16;5066517;28;20029;-44
2023/02/22 09:24:07;;;;;;;68.22;24.58;;;;;;;5.96;100.00;101113.50;5067146;28;20063;-44
2023/02/22 09:26:33;;;;;;;;;;;;;;;5.95;100.00;101127.84;5066695;28;20025;-43
2023/02/22 09:28:58;;;;;;;69.40;24.00;;;;;;;5.99;100.00;101123.88;5064790;28;19920;-46
2023/02/22 09:31:24;;;;;;;62.80;24.25;;;;;;;6.04;100.00;101126.13;5065689;28;20032;-43
2023/02/22 09:33:49;;;;;;;69.50;25.40;;;;;;;6.01;100.00;101145.97;5066611;28;20116;-45
2023/02/22 09:36:14;;;;;;;64.80;24.60;;;;;;;6.06;100.00;101148.22;5066384;28;20093;-44
2023/02/22 09:38:40;;;;;;;66.72;24.45;;;;;;;6.06;100.00;101148.22;5067503;28;20029;-43
2023/02/22 09:41:12;;;;;;;68.40;24.95;;;;;;;6.08;100.00;101149.75;5066476;28;20119;-43
2023/02/22 09:44:09;;;;;;;68.03;25.23;;;;;;;6.09;100.00;101126.53;5032501;28;20040;-46
2023/02/22 09:46:40;;;;;;;61.55;24.58;;;;;;;6.13;100.00;101117.22;5061106;28;20465;-45
2023/02/22 09:49:15;;;;;;;63.17;24.63;;;;;;;6.15;100.00;101124.09;5046625;28;20104;-44
2023/02/22 09:51:48;;;;;;;64.25;23.70;;;;;;;6.23;100.00;101126.06;5064755;28;20086;-44
2023/02/22 09:54:20;;;;;;;59.15;23.98;;;;;;;6.10;100.00;101110.34;5045834;28;20054;-44
2023/02/22 09:56:47;;;;;;;61.30;24.95;;;;;;;6.19;100.00;101105.97;5047833;28;20540;-43
2023/02/22 09:59:20;;;;;;;60.97;24.45;;;;;;;6.17;100.00;101110.63;5064627;28;20509;-46
2023/02/22 10:01:48;;;;;;;55.78;23.42;;;;;;;6.12;100.00;101100.34;5048076;28;20185;-44
2023/02/22 10:04:35;;;;;;;64.57;23.35;;;;;;;6.24;100.00;101095.69;5046443;28;20028;-46
2023/02/22 10:07:13;;;;;;;61.88;22.38;;;;;;;6.27;100.00;101100.72;5047297;28;20518;-44
2023/02/22 10:09:41;;;;;;;52.58;21.48;;;;;;;6.27;100.00;101111.41;5061645;28;20119;-44
2023/02/22 10:12:29;;;;;;;59.95;23.20;;;;;;;6.29;100.00;101129.97;5046009;28;20028;-44
2023/02/22 10:15:10;;;;;;;58.20;22.88;;;;;;;6.40;100.00;101136.94;5064760;28;20562;-44
2023/02/22 10:17:45;;;;;;;65.07;22.92;;;;;;;6.42;100.00;101125.13;5063688;28;20025;-44
2023/02/22 10:20:20;;;;;;;53.83;21.98;;;;;;;6.50;100.00;101129.72;5064537;28;20033;-44
2023/02/22 10:22:56;;;;;;;54.65;22.58;;;;;;;6.48;100.00;101123.72;5048152;28;20033;-43
2023/02/22 10:25:27;;;;;;;53.30;21.92;;;;;;;6.42;100.00;101127.78;5048596;28;20031;-45
2023/02/22 10:28:11;;;;;;;54.63;21.55;;;;;;;6.53;100.00;101110.72;5065375;28;20036;-46
2023/02/22 10:30:45;;;;;;;47.10;20.77;;;;;;;6.57;100.00;101118.28;5066384;28;20024;-47
2023/02/22 10:33:21;;;;;;;50.05;19.92;;;;;;;6.59;100.00;101120.84;5047795;28;20071;-44
2023/02/22 10:35:47;;;;;;;51.17;20.55;;;;;;;6.80;100.00;101124.09;5065704;28;20047;-44
2023/02/22 10:38:25;;;;;;;48.17;20.23;;;;;;;6.96;100.00;101109.19;5066025;28;20025;-43
2023/02/22 10:41:08;;;;;;;43.75;19.40;;;;;;;6.96;100.00;101102.00;5065659;28;20463;-50
2023/02/22 10:43:37;;;;;;;43.85;19.67;;;;;;;7.02;100.00;101089.84;5063416;28;20173;-45
2023/02/22 10:46:05;;;;;;;50.08;19.10;;;;;;;7.14;100.00;101093.16;5065322;28;20033;-44
2023/02/22 10:48:31;;;;;;;44.77;19.97;;;;;;;7.18;100.00;101084.63;5066366;28;20174;-44
2023/02/22 10:51:00;;;;;;;44.58;20.55;;;;;;;7.17;100.00;101069.59;5048172;28;20344;-46
2023/02/22 10:53:27;;;;;;;42.38;19.20;;;;;;;7.28;100.00;101065.81;5064743;28;20066;-45
2023/02/22 10:56:21;;;;;;;48.25;19.90;;;;;;;7.43;100.00;101055.41;5047298;28;20029;-44
2023/02/22 10:59:01;;;;;;;43.13;19.83;;;;;;;7.53;100.00;101058.81;5045981;28;20420;-45
2023/02/22 11:01:34;;;;;;;45.72;19.90;;;;;;;7.67;100.00;101055.56;5065884;28;20127;-45
2023/02/22 11:04:15;;;;;;;45.88;20.20;;;;;;;7.66;100.00;101061.06;5064565;28;20086;-44
2023/02/22 11:06:44;;;;;;;43.47;18.65;;;;;;;7.58;100.00;101063.69;5044169;28;20514;-45
2023/02/22 11:09:16;;;;;;;41.63;19.27;;;;;;;7.47;100.00;101059.44;5065294;28;20360;-45
2023/02/22 11:11:44;;;;;;;46.33;19.90;;;;;;;7.52;100.00;101058.97;5046112;28;20029;-44